Главная страница
METAR-TAF:

METAR-TAF

Аэропорты :

Борден (авиабаза)

Borden, Онтарио, Канада

широта: 44-15N, долгота: 079-55W, высота над уровнем моря: 223 м

Текущие метеонаблюдения

Эта сводка был подготовлена 53 минут назад, в 21:00 UTC
Ветер 4 Узел от восточно-юго-восточный
Температура 14°C
Влажность 38%
Давление 1029 hPa
Видимость: 14.5 км
Отдельные облака на высоте 6200 фута

METAR: CYBN 192100Z AUTO 12004KT 9SM SCT062 14/00 A3038 RMK SLP293

Время: 17:53 (21:53 UTC)

Прогноз

Эта сводка был подготовлена 28 часа и 23 минут назад, в 17:30 UTC
Прогноз действительный с 18-го 18 UTC до 19-го 06 UTC
Ветер 8 Узел от северный
Видимость: 10 км
Отдельные облака на высоте 5000 фута
временами
С 18-го 18 UTC до 18-го 24 UTC
Рассеянная облачность на высоте 5000 фута

TAF: CYBN 181730Z 1818/1906 36008KT P6SM SCT050 TEMPO 1818/1824 BKN050 RMK FCST BASED ON AUTO OBS. NXT FCST BY 190000Z

Метеонаблюдения и прогнозы для более 4000 аэропортов (сводки METAR и TAF).

Имеющиеся станции представлены на карте желтыми и красными точками.

Чтобы увидеть название станции, наведите на нее мышь.

Затем щелкните, чтобы увидеть метеонаблюдения и метеопрогнозы.

Управление картой: чтобы увеличить масштаб, щелкните зеленые кнопки с черным крестиком; чтобы уменьшить масштаб, щелкните зеленую кнопку с тире; для просмотра соседних карт щелкайте зеленые стрелки.


METAR-TAF: